メインページ
METAR-TAF:

METAR-TAF

空港 :

ファアモツ国際空港

トンガタプ島, トンガ

緯度: 21-14S, 経度: 175-09W, 海抜: 38m

現時点の気象観測

当レポートは6分前の21:00(UTC)に作成
無風
気温 26°C
湿度 89%
気圧 1015 hPa
視程10km以上
高度1000ftの雲はほとんどない
高度1800ftの雲は散在している, 塔状積雲.

METAR: NFTF 222100Z 00000KT 9999 FEW010 SCT018TCU 26/24 Q1015

時間: 10:06 (21:06 UTC)

予報

当レポートは2時間54分前の18:12(UTC)に作成
予報は22日の 18時(UTC)から 23日の 18時(UTC)まで有効
変向風 3kt
視程: 0200m
高度1600ftの雲はほとんどない
22日の 1930時(UTC)から
北/北東の風 8kt
視程10km以上
高度1800ftの雲はほとんどない
高度10000ftの雲は散在している

TAF: NFTF 221812Z 2218/2318 VRB03KT 0200 FG FEW016 FM221930 03008KT 9999 FEW018 SCT100

4,000以上の空港の気象観測と天気予報(METAR報とTAF報)

利用可能な観測所は地図上に黄色い丸と赤い丸で示す。

丸の上にカーソルを重ねると観測所名を参照できる。

次にクリックすると気象観測と天気予報を参照できる。

マップの切り替え:黒色「×」印の緑ボタンをクリックして拡大、「-」印の緑ボタンをクリックして縮小、緑色の三角印をクリックして隣りの地図に切り替え


METAR-TAF: